PWSweather.com
Personal Weather Stations
Station Observations

LlefiĆ BadalonaES

Lat: 41.44, Lon: 2.2175

Elevation: 213.254

Station Type: oregon WMR918

http://www.estacionmeteorologicabadalonallefia.com

Latest ConditionsUpdated 7:50:05 PM GMT+01:01 Wednesday, Sep 2, 2015
Currently Today's Max Today's Min Today's Average
Temperature 72.9°F22.7°C 74.5°F23.6°C 68.7°F20.4°C 72.4°F22.4°C
Dew Point 65.2°F18.4°C 69.2°F20.7°C 63.7°F17.6°C 66.5°F19.2°C
Winds 2.7 mph E4.3 kmh E 7.4 mph SE11.9 kmh SE - 2.9 mph 4.7 kmh
Wind Gusts 6.4 mph10.3 kmh 13.7 mph22.0 kmh - -
Humidity 77% 94% 73% 82%
Pressure 29.94 in1013.9 mb 30.03 in1016.9 mb 29.94 in1013.9 mb -
Precipitation - 0.25 in6.4 mm - -
Hour Temp Dew Point Humidity Winds Wind Gusts Pressure Precip Precip Rate Daily Precip Total
07:50 PM 72.9°F22.7°C 65.2°F18.4°C 77% 2.7 mph E4.3 kmh E 6.4 mph10.3 kmh 29.94 in1013.9 mb - 0.00 in0.0 mm 0.25 in6.4 mm
07:40 PM 72.7°F22.6°C 64.7°F18.2°C 76% 3.6 mph E5.8 kmh E 8.1 mph13.0 kmh 29.94 in1013.9 mb - 0.00 in0.0 mm 0.25 in6.4 mm
07:30 PM 72.9°F22.7°C 64.8°F18.2°C 76% 5.0 mph SE8.0 kmh SE 8.1 mph13.0 kmh 29.94 in1013.9 mb - 0.00 in0.0 mm 0.25 in6.4 mm
07:20 PM 72.9°F22.7°C 64.1°F17.8°C 74% 4.4 mph SE7.1 kmh SE 8.7 mph14.0 kmh 29.94 in1013.9 mb - 0.00 in0.0 mm 0.25 in6.4 mm
07:10 PM 73.0°F22.8°C 64.3°F17.9°C 74% 2.5 mph SE4.0 kmh SE 4.1 mph6.6 kmh 29.94 in1013.9 mb - 0.00 in0.0 mm 0.25 in6.4 mm
07:00 PM 73.0°F22.8°C 64.3°F17.9°C 74% 1.6 mph SSE2.6 kmh SSE 5.2 mph8.4 kmh 29.94 in1013.9 mb - 0.00 in0.0 mm 0.25 in6.4 mm
06:50 PM 73.0°F22.8°C 64.3°F17.9°C 74% 3.1 mph E5.0 kmh E 7.6 mph12.2 kmh 29.94 in1013.9 mb - 0.00 in0.0 mm 0.25 in6.4 mm
06:40 PM 73.0°F22.8°C 64.3°F17.9°C 74% 2.7 mph ESE4.3 kmh ESE 7.0 mph11.3 kmh 29.94 in1013.9 mb - 0.00 in0.0 mm 0.25 in6.4 mm
06:30 PM 73.0°F22.8°C 64.3°F17.9°C 74% 3.6 mph E5.8 kmh E 7.6 mph12.2 kmh 29.94 in1013.9 mb - 0.00 in0.0 mm 0.25 in6.4 mm
06:20 PM 73.0°F22.8°C 63.8°F17.7°C 73% 6.2 mph SE10.0 kmh SE 10.5 mph16.9 kmh 29.94 in1013.9 mb - 0.00 in0.0 mm 0.25 in6.4 mm
06:10 PM 73.2°F22.9°C 64.0°F17.8°C 73% 4.8 mph SE7.7 kmh SE 7.6 mph12.2 kmh 29.97 in1014.9 mb - 0.00 in0.0 mm 0.25 in6.4 mm
06:00 PM 73.1°F22.8°C 63.9°F17.7°C 73% 4.5 mph SSE7.2 kmh SSE 9.9 mph15.9 kmh 29.97 in1014.9 mb - 0.00 in0.0 mm 0.25 in6.4 mm
05:50 PM 72.9°F22.7°C 63.7°F17.6°C 73% 6.1 mph SSE9.8 kmh SSE 7.0 mph11.3 kmh 29.97 in1014.9 mb - 0.00 in0.0 mm 0.25 in6.4 mm
05:40 PM 73.0°F22.8°C 64.3°F17.9°C 74% Calm Calm 4.6 mph7.4 kmh 29.97 in1014.9 mb - 0.00 in0.0 mm 0.25 in6.4 mm
05:30 PM 72.9°F22.7°C 64.1°F17.8°C 74% 6.9 mph SE11.1 kmh SE 10.7 mph17.2 kmh 29.97 in1014.9 mb - 0.00 in0.0 mm 0.25 in6.4 mm
05:20 PM 73.0°F22.8°C 64.6°F18.1°C 75% 4.2 mph SE6.8 kmh SE 6.4 mph10.3 kmh 29.97 in1014.9 mb - 0.00 in0.0 mm 0.25 in6.4 mm
05:10 PM 72.9°F22.7°C 64.5°F18.1°C 75% 6.4 mph SE10.3 kmh SE 11.3 mph18.2 kmh 29.97 in1014.9 mb - 0.00 in0.0 mm 0.25 in6.4 mm
05:00 PM 73.0°F22.8°C 64.3°F17.9°C 74% 6.6 mph SSE10.6 kmh SSE 10.7 mph17.2 kmh 29.97 in1014.9 mb - 0.00 in0.0 mm 0.25 in6.4 mm
04:50 PM 73.0°F22.8°C 64.2°F17.9°C 74% 5.6 mph SSE9.0 kmh SSE 8.1 mph13.0 kmh 29.97 in1014.9 mb - 0.00 in0.0 mm 0.25 in6.4 mm
04:40 PM 72.8°F22.7°C 64.8°F18.2°C 76% 5.5 mph SE8.9 kmh SE 9.9 mph15.9 kmh 29.97 in1014.9 mb - 0.00 in0.0 mm 0.25 in6.4 mm
04:30 PM 72.9°F22.7°C 65.2°F18.4°C 77% 7.4 mph SE11.9 kmh SE 10.7 mph17.2 kmh 29.97 in1014.9 mb - 0.00 in0.0 mm 0.25 in6.4 mm
04:20 PM 72.9°F22.7°C 65.6°F18.7°C 78% 5.0 mph SE8.0 kmh SE 10.5 mph16.9 kmh 29.97 in1014.9 mb - 0.00 in0.0 mm 0.25 in6.4 mm
04:10 PM 73.0°F22.8°C 65.8°F18.8°C 78% 4.7 mph SE7.6 kmh SE 9.9 mph15.9 kmh 29.97 in1014.9 mb - 0.00 in0.0 mm 0.25 in6.4 mm
04:00 PM 72.9°F22.7°C 65.6°F18.7°C 78% 4.5 mph SE7.2 kmh SE 10.7 mph17.2 kmh 29.97 in1014.9 mb - 0.00 in0.0 mm 0.25 in6.4 mm
03:50 PM 73.0°F22.8°C 65.8°F18.8°C 78% 2.2 mph ESE3.5 kmh ESE 8.1 mph13.0 kmh 29.97 in1014.9 mb - 0.00 in0.0 mm 0.25 in6.4 mm
03:40 PM 73.0°F22.8°C 65.8°F18.8°C 78% 5.1 mph SE8.2 kmh SE 10.5 mph16.9 kmh 29.97 in1014.9 mb - 0.00 in0.0 mm 0.25 in6.4 mm
03:30 PM 72.8°F22.7°C 65.5°F18.6°C 78% 5.4 mph SE8.7 kmh SE 8.1 mph13.0 kmh 29.97 in1014.9 mb - 0.00 in0.0 mm 0.25 in6.4 mm
03:20 PM 72.7°F22.6°C 66.1°F18.9°C 80% 3.8 mph SSE6.1 kmh SSE 8.1 mph13.0 kmh 29.97 in1014.9 mb - 0.00 in0.0 mm 0.25 in6.4 mm
03:10 PM 72.6°F22.6°C 66.1°F18.9°C 80% 5.4 mph ESE8.7 kmh ESE 8.1 mph13.0 kmh 29.97 in1014.9 mb - 0.00 in0.0 mm 0.25 in6.4 mm
03:00 PM 72.9°F22.7°C 66.3°F19.1°C 80% 5.8 mph SE9.3 kmh SE 10.5 mph16.9 kmh 29.97 in1014.9 mb - 0.00 in0.0 mm 0.25 in6.4 mm
02:50 PM 73.4°F23.0°C 66.5°F19.2°C 79% 4.1 mph SE6.6 kmh SE 8.1 mph13.0 kmh 29.97 in1014.9 mb - 0.00 in0.0 mm 0.25 in6.4 mm
02:40 PM 73.9°F23.3°C 65.9°F18.8°C 76% 4.5 mph ESE7.2 kmh ESE 7.6 mph12.2 kmh 29.97 in1014.9 mb - 0.00 in0.0 mm 0.25 in6.4 mm
02:30 PM 74.5°F23.6°C 66.4°F19.1°C 76% 3.4 mph E5.5 kmh E 8.1 mph13.0 kmh 29.97 in1014.9 mb - 0.00 in0.0 mm 0.25 in6.4 mm
02:20 PM 74.1°F23.4°C 65.3°F18.5°C 74% 5.9 mph SE9.5 kmh SE 10.5 mph16.9 kmh 29.97 in1014.9 mb - 0.00 in0.0 mm 0.25 in6.4 mm
02:10 PM 74.1°F23.4°C 65.3°F18.5°C 74% 5.6 mph SE9.0 kmh SE 11.3 mph18.2 kmh 29.97 in1014.9 mb - 0.00 in0.0 mm 0.25 in6.4 mm
02:00 PM 74.3°F23.5°C 65.9°F18.8°C 75% 5.2 mph ESE8.4 kmh ESE 8.1 mph13.0 kmh 30.00 in1015.9 mb - 0.00 in0.0 mm 0.25 in6.4 mm
01:50 PM 73.9°F23.3°C 66.3°F19.1°C 77% 2.7 mph SE4.3 kmh SE 13.7 mph22.0 kmh 30.00 in1015.9 mb - 0.00 in0.0 mm 0.25 in6.4 mm
01:40 PM 73.9°F23.3°C 66.2°F19.0°C 77% 6.2 mph SE10.0 kmh SE 13.7 mph22.0 kmh 30.00 in1015.9 mb - 0.00 in0.0 mm 0.25 in6.4 mm
01:30 PM 74.1°F23.4°C 65.3°F18.5°C 74% 6.5 mph ESE10.5 kmh ESE 13.7 mph22.0 kmh 30.00 in1015.9 mb - 0.00 in0.0 mm 0.25 in6.4 mm
01:20 PM 74.4°F23.6°C 65.2°F18.4°C 73% 5.1 mph SE8.2 kmh SE 9.9 mph15.9 kmh 30.00 in1015.9 mb - 0.00 in0.0 mm 0.25 in6.4 mm
01:10 PM 74.3°F23.5°C 67.4°F19.7°C 79% 4.2 mph S6.8 kmh S 6.4 mph10.3 kmh 30.00 in1015.9 mb - 0.00 in0.0 mm 0.25 in6.4 mm
01:00 PM 73.6°F23.1°C 67.4°F19.7°C 81% 1.1 mph S1.8 kmh S 5.8 mph9.3 kmh 30.00 in1015.9 mb - 0.00 in0.0 mm 0.25 in6.4 mm
12:50 PM 73.1°F22.8°C 67.6°F19.8°C 83% 4.3 mph SSE6.9 kmh SSE 7.6 mph12.2 kmh 30.00 in1015.9 mb - 0.00 in0.0 mm 0.25 in6.4 mm
12:40 PM 72.6°F22.6°C 68.8°F20.4°C 88% 1.5 mph SE2.4 kmh SE 6.4 mph10.3 kmh 30.00 in1015.9 mb - 0.00 in0.0 mm 0.25 in6.4 mm
12:30 PM 71.5°F21.9°C 68.4°F20.2°C 90% 2.5 mph SSE4.0 kmh SSE 4.6 mph7.4 kmh 30.00 in1015.9 mb - 0.00 in0.0 mm 0.25 in6.4 mm
12:20 PM 70.8°F21.6°C 68.0°F20.0°C 91% Calm Calm 2.9 mph4.7 kmh 30.00 in1015.9 mb - 0.00 in0.0 mm 0.25 in6.4 mm
12:10 PM 70.2°F21.2°C 68.0°F20.0°C 93% 2.7 mph N4.3 kmh N 4.6 mph7.4 kmh 30.00 in1015.9 mb - 0.00 in0.0 mm 0.25 in6.4 mm
12:00 PM 69.8°F21.0°C 67.7°F19.8°C 93% 0.7 mph WSW1.1 kmh WSW 3.5 mph5.6 kmh 30.00 in1015.9 mb - 0.00 in0.0 mm 0.25 in6.4 mm
11:50 AM 69.5°F20.8°C 67.7°F19.8°C 94% 1.8 mph NW2.9 kmh NW 2.9 mph4.7 kmh 30.00 in1015.9 mb - 0.00 in0.0 mm 0.25 in6.4 mm
11:40 AM 69.6°F20.9°C 67.8°F19.9°C 94% Calm Calm 3.5 mph5.6 kmh 30.00 in1015.9 mb - 0.00 in0.0 mm 0.25 in6.4 mm
11:30 AM 69.4°F20.8°C 67.6°F19.8°C 94% Calm Calm -- 30.00 in1015.9 mb - 0.00 in0.0 mm 0.25 in6.4 mm
11:20 AM 69.3°F20.7°C 67.5°F19.7°C 94% Calm Calm -- 30.00 in1015.9 mb - 0.00 in0.0 mm 0.25 in6.4 mm
11:10 AM 68.9°F20.5°C 67.1°F19.5°C 94% Calm Calm -- 30.00 in1015.9 mb - 0.00 in0.0 mm 0.25 in6.4 mm
11:00 AM 68.7°F20.4°C 66.6°F19.2°C 93% Calm Calm 4.6 mph7.4 kmh 30.03 in1016.9 mb - 0.01 in0.3 mm 0.25 in6.4 mm
10:50 AM 68.7°F20.4°C 66.6°F19.2°C 93% 1.4 mph NW2.3 kmh NW 5.2 mph8.4 kmh 30.03 in1016.9 mb - 0.03 in0.8 mm 0.25 in6.4 mm
10:40 AM 68.7°F20.4°C 66.3°F19.1°C 92% 4.5 mph NW7.2 kmh NW 6.4 mph10.3 kmh 30.03 in1016.9 mb - 0.03 in0.8 mm 0.22 in5.6 mm
10:30 AM 69.1°F20.6°C 66.3°F19.1°C 91% 4.7 mph NW7.6 kmh NW 7.6 mph12.2 kmh 30.03 in1016.9 mb - 0.00 in0.0 mm 0.18 in4.6 mm
10:20 AM 69.2°F20.7°C 66.5°F19.2°C 91% 4.9 mph NW7.9 kmh NW 7.6 mph12.2 kmh 30.03 in1016.9 mb - 0.00 in0.0 mm 0.18 in4.6 mm
10:10 AM 69.3°F20.7°C 66.5°F19.2°C 91% 3.1 mph NNW5.0 kmh NNW 6.4 mph10.3 kmh 30.03 in1016.9 mb - 0.00 in0.0 mm 0.18 in4.6 mm
10:00 AM 69.1°F20.6°C 66.3°F19.1°C 91% 4.0 mph NW6.4 kmh NW 7.6 mph12.2 kmh 30.00 in1015.9 mb - 0.00 in0.0 mm 0.18 in4.6 mm
09:50 AM 68.7°F20.4°C 66.3°F19.1°C 92% 3.3 mph NW5.3 kmh NW 7.0 mph11.3 kmh 30.00 in1015.9 mb - 0.00 in0.0 mm 0.18 in4.6 mm
09:40 AM 68.7°F20.4°C 66.6°F19.2°C 93% 3.7 mph NW6.0 kmh NW 6.4 mph10.3 kmh 30.00 in1015.9 mb - 0.00 in0.0 mm 0.18 in4.6 mm
09:30 AM 68.9°F20.5°C 67.1°F19.5°C 94% 1.3 mph NNW2.1 kmh NNW 4.1 mph6.6 kmh 30.00 in1015.9 mb - 0.00 in0.0 mm 0.18 in4.6 mm
09:20 AM 68.9°F20.5°C 66.8°F19.3°C 93% 4.1 mph NW6.6 kmh NW 7.0 mph11.3 kmh 30.00 in1015.9 mb - 0.02 in0.5 mm 0.18 in4.6 mm
09:10 AM 69.3°F20.7°C 67.1°F19.5°C 93% Calm Calm -- 30.00 in1015.9 mb - 0.02 in0.5 mm 0.16 in4.1 mm
09:00 AM 69.9°F21.1°C 67.8°F19.9°C 93% 4.2 mph NW6.8 kmh NW 8.1 mph13.0 kmh 30.00 in1015.9 mb - 0.02 in0.5 mm 0.14 in3.6 mm
08:50 AM 70.7°F21.5°C 67.9°F19.9°C 91% 4.8 mph WNW7.7 kmh WNW 5.8 mph9.3 kmh 30.00 in1015.9 mb - 0.03 in0.8 mm 0.12 in3.0 mm
08:40 AM 71.9°F22.2°C 69.1°F20.6°C 91% 4.6 mph SW7.4 kmh SW 8.1 mph13.0 kmh 30.00 in1015.9 mb - 0.03 in0.8 mm 0.09 in2.3 mm
08:30 AM 72.3°F22.4°C 69.2°F20.7°C 90% 3.8 mph NW6.1 kmh NW 5.2 mph8.4 kmh 29.97 in1014.9 mb - 0.06 in1.5 mm 0.07 in1.8 mm
08:20 AM 72.7°F22.6°C 68.9°F20.5°C 88% 3.6 mph WNW5.8 kmh WNW 5.2 mph8.4 kmh 29.97 in1014.9 mb - 0.01 in0.3 mm 0.01 in0.3 mm
08:10 AM 72.9°F22.7°C 68.8°F20.4°C 87% Calm Calm -- 29.97 in1014.9 mb - 0.00 in0.0 mm 0.00 in0.0 mm
08:00 AM 72.9°F22.7°C 68.8°F20.4°C 87% 4.0 mph NW6.4 kmh NW 7.0 mph11.3 kmh 29.97 in1014.9 mb - 0.00 in0.0 mm 0.00 in0.0 mm
07:50 AM 73.2°F22.9°C 68.8°F20.4°C 86% Calm Calm 4.1 mph6.6 kmh 29.97 in1014.9 mb - 0.00 in0.0 mm 0.00 in0.0 mm
07:40 AM 73.2°F22.9°C 68.4°F20.2°C 85% Calm Calm 4.1 mph6.6 kmh 29.97 in1014.9 mb - 0.00 in0.0 mm 0.00 in0.0 mm
07:30 AM 73.2°F22.9°C 67.7°F19.8°C 83% 3.6 mph NW5.8 kmh NW 5.2 mph8.4 kmh 29.97 in1014.9 mb - 0.00 in0.0 mm 0.00 in0.0 mm
07:20 AM 73.2°F22.9°C 67.7°F19.8°C 83% Calm Calm 3.5 mph5.6 kmh 29.97 in1014.9 mb - 0.00 in0.0 mm 0.00 in0.0 mm
07:10 AM 73.0°F22.8°C 67.6°F19.8°C 83% Calm Calm 2.9 mph4.7 kmh 29.97 in1014.9 mb - 0.00 in0.0 mm 0.00 in0.0 mm
07:00 AM 72.9°F22.7°C 67.4°F19.7°C 83% Calm Calm -- 29.97 in1014.9 mb - 0.00 in0.0 mm 0.00 in0.0 mm
06:50 AM 72.9°F22.7°C 67.4°F19.7°C 83% 1.1 mph NW1.8 kmh NW 5.2 mph8.4 kmh 29.97 in1014.9 mb - 0.00 in0.0 mm 0.00 in0.0 mm
06:40 AM 72.9°F22.7°C 67.4°F19.7°C 83% 1.2 mph NNW1.9 kmh NNW 2.9 mph4.7 kmh 29.97 in1014.9 mb - 0.00 in0.0 mm 0.00 in0.0 mm
06:30 AM 72.9°F22.7°C 67.4°F19.7°C 83% 1.1 mph NW1.8 kmh NW 5.2 mph8.4 kmh 29.97 in1014.9 mb - 0.00 in0.0 mm 0.00 in0.0 mm
06:20 AM 72.9°F22.7°C 67.0°F19.4°C 82% Calm Calm 4.6 mph7.4 kmh 29.97 in1014.9 mb - 0.00 in0.0 mm 0.00 in0.0 mm
06:10 AM 73.0°F22.8°C 67.2°F19.6°C 82% 1.9 mph NW3.1 kmh NW 5.2 mph8.4 kmh 29.97 in1014.9 mb - 0.00 in0.0 mm 0.00 in0.0 mm
06:00 AM 73.0°F22.8°C 67.2°F19.6°C 82% 1.2 mph NW1.9 kmh NW -- 29.97 in1014.9 mb - 0.00 in0.0 mm 0.00 in0.0 mm
05:40 AM 72.9°F22.7°C 67.0°F19.4°C 82% 3.1 mph NW5.0 kmh NW 5.8 mph9.3 kmh 29.97 in1014.9 mb - 0.00 in0.0 mm 0.00 in0.0 mm
05:30 AM 72.9°F22.7°C 67.0°F19.4°C 82% Calm Calm 4.1 mph6.6 kmh 29.97 in1014.9 mb - 0.00 in0.0 mm 0.00 in0.0 mm
05:20 AM 72.9°F22.7°C 66.7°F19.3°C 81% Calm Calm -- 29.97 in1014.9 mb - 0.00 in0.0 mm 0.00 in0.0 mm
05:10 AM 72.9°F22.7°C 66.7°F19.3°C 81% 1.2 mph NW1.9 kmh NW 5.8 mph9.3 kmh 29.97 in1014.9 mb - 0.00 in0.0 mm 0.00 in0.0 mm
05:00 AM 72.9°F22.7°C 66.7°F19.3°C 81% Calm Calm 4.6 mph7.4 kmh 29.97 in1014.9 mb - 0.00 in0.0 mm 0.00 in0.0 mm
04:50 AM 72.9°F22.7°C 66.7°F19.3°C 81% 1.7 mph NW2.7 kmh NW 4.1 mph6.6 kmh 29.97 in1014.9 mb - 0.00 in0.0 mm 0.00 in0.0 mm
04:40 AM 72.9°F22.7°C 66.7°F19.3°C 81% 2.4 mph NW3.9 kmh NW 5.2 mph8.4 kmh 29.97 in1014.9 mb - 0.00 in0.0 mm 0.00 in0.0 mm
04:30 AM 73.0°F22.8°C 66.5°F19.2°C 80% 1.2 mph NW1.9 kmh NW 4.6 mph7.4 kmh 29.97 in1014.9 mb - 0.00 in0.0 mm 0.00 in0.0 mm
04:20 AM 73.2°F22.9°C 66.7°F19.3°C 80% 2.2 mph NW3.5 kmh NW 5.2 mph8.4 kmh 29.97 in1014.9 mb - 0.00 in0.0 mm 0.00 in0.0 mm
04:10 AM 73.2°F22.9°C 66.7°F19.3°C 80% 2.8 mph NW4.5 kmh NW 4.1 mph6.6 kmh 29.97 in1014.9 mb - 0.00 in0.0 mm 0.00 in0.0 mm
04:00 AM 73.2°F22.9°C 66.7°F19.3°C 80% Calm Calm 5.2 mph8.4 kmh 29.97 in1014.9 mb - 0.00 in0.0 mm 0.00 in0.0 mm
03:50 AM 73.0°F22.8°C 66.5°F19.2°C 80% 2.5 mph NW4.0 kmh NW 9.9 mph15.9 kmh 29.97 in1014.9 mb - 0.00 in0.0 mm 0.00 in0.0 mm
03:40 AM 73.0°F22.8°C 66.9°F19.4°C 81% 3.5 mph NW5.6 kmh NW 7.6 mph12.2 kmh 30.00 in1015.9 mb - 0.00 in0.0 mm 0.00 in0.0 mm
03:30 AM 72.9°F22.7°C 66.7°F19.3°C 81% 0.9 mph NW1.4 kmh NW 4.1 mph6.6 kmh 30.00 in1015.9 mb - 0.00 in0.0 mm 0.00 in0.0 mm
03:20 AM 72.9°F22.7°C 67.0°F19.4°C 82% 2.6 mph NW4.2 kmh NW 5.2 mph8.4 kmh 30.00 in1015.9 mb - 0.00 in0.0 mm 0.00 in0.0 mm
03:10 AM 72.9°F22.7°C 67.0°F19.4°C 82% Calm Calm -- 30.00 in1015.9 mb - 0.00 in0.0 mm 0.00 in0.0 mm
03:00 AM 72.7°F22.6°C 66.9°F19.4°C 82% 2.8 mph NW4.5 kmh NW 4.6 mph7.4 kmh 30.00 in1015.9 mb - 0.00 in0.0 mm 0.00 in0.0 mm
02:50 AM 72.7°F22.6°C 66.9°F19.4°C 82% 3.4 mph WNW5.5 kmh WNW 7.0 mph11.3 kmh 30.00 in1015.9 mb - 0.00 in0.0 mm 0.00 in0.0 mm
02:40 AM 72.7°F22.6°C 66.9°F19.4°C 82% 3.6 mph NW5.8 kmh NW 5.2 mph8.4 kmh 30.00 in1015.9 mb - 0.00 in0.0 mm 0.00 in0.0 mm
02:30 AM 72.8°F22.7°C 67.3°F19.6°C 83% Calm Calm 3.5 mph5.6 kmh 30.00 in1015.9 mb - 0.00 in0.0 mm 0.00 in0.0 mm
02:20 AM 72.7°F22.6°C 67.2°F19.6°C 83% Calm Calm -- 30.00 in1015.9 mb - 0.00 in0.0 mm 0.00 in0.0 mm
02:10 AM 72.5°F22.5°C 67.0°F19.4°C 83% Calm Calm -- 30.00 in1015.9 mb - 0.00 in0.0 mm 0.00 in0.0 mm
02:00 AM 72.5°F22.5°C 66.7°F19.3°C 82% 4.7 mph NW7.6 kmh NW 8.1 mph13.0 kmh 30.00 in1015.9 mb - 0.00 in0.0 mm 0.00 in0.0 mm
01:50 AM 72.7°F22.6°C 66.9°F19.4°C 82% 2.7 mph NW4.3 kmh NW 4.1 mph6.6 kmh 30.00 in1015.9 mb - 0.00 in0.0 mm 0.00 in0.0 mm
01:40 AM 72.7°F22.6°C 66.9°F19.4°C 82% 3.2 mph NW5.1 kmh NW 7.6 mph12.2 kmh 30.00 in1015.9 mb - 0.00 in0.0 mm 0.00 in0.0 mm
01:30 AM 72.9°F22.7°C 66.7°F19.3°C 81% 3.6 mph NW5.8 kmh NW 7.0 mph11.3 kmh 30.00 in1015.9 mb - 0.00 in0.0 mm 0.00 in0.0 mm
01:20 AM 73.0°F22.8°C 66.5°F19.2°C 80% 2.9 mph NW4.7 kmh NW 4.6 mph7.4 kmh 30.00 in1015.9 mb - 0.00 in0.0 mm 0.00 in0.0 mm
01:10 AM 73.4°F23.0°C 66.5°F19.2°C 79% 3.0 mph NW4.8 kmh NW 5.2 mph8.4 kmh 30.00 in1015.9 mb - 0.00 in0.0 mm 0.00 in0.0 mm
01:00 AM 73.6°F23.1°C 66.3°F19.1°C 78% 3.7 mph NW6.0 kmh NW 5.2 mph8.4 kmh 30.00 in1015.9 mb - 0.00 in0.0 mm 0.00 in0.0 mm
12:50 AM 73.9°F23.3°C 66.3°F19.1°C 77% 1.4 mph WNW2.3 kmh WNW 5.2 mph8.4 kmh 30.00 in1015.9 mb - 0.00 in0.0 mm 0.00 in0.0 mm
12:40 AM 74.1°F23.4°C 66.1°F18.9°C 76% 1.3 mph NW2.1 kmh NW 3.5 mph5.6 kmh 30.00 in1015.9 mb - 0.00 in0.0 mm 0.00 in0.0 mm
12:30 AM 74.2°F23.4°C 65.7°F18.7°C 75% 4.1 mph NW6.6 kmh NW 8.1 mph13.0 kmh 30.00 in1015.9 mb - 0.00 in0.0 mm 0.00 in0.0 mm
12:20 AM 74.3°F23.5°C 65.9°F18.8°C 75% 2.0 mph NW3.2 kmh NW 7.0 mph11.3 kmh 30.00 in1015.9 mb - 0.00 in0.0 mm 0.00 in0.0 mm
12:10 AM 74.3°F23.5°C 66.2°F19.0°C 76% 1.7 mph NW2.7 kmh NW -- 30.00 in1015.9 mb - 0.00 in0.0 mm 0.00 in0.0 mm
12:00 AM 74.1°F23.4°C 66.4°F19.1°C 77% Calm Calm -- 30.00 in1015.9 mb - 0.00 in0.0 mm 0.00 in0.0 mm